sensor_id;sensor_type;location;lat;lon;timestamp;pressure;altitude;pressure_sealevel;temperature;humidity
35704;BME280;21820;51.112;13.762;2023-02-23T00:01:26;99120.91;;;18.45;64.74
35704;BME280;21820;51.112;13.762;2023-02-23T00:03:56;99120.66;;;18.48;65.08
35704;BME280;21820;51.112;13.762;2023-02-23T00:06:24;99105.31;;;18.45;64.84
35704;BME280;21820;51.112;13.762;2023-02-23T00:08:49;99117.78;;;18.51;64.82
35704;BME280;21820;51.112;13.762;2023-02-23T00:11:17;99090.22;;;18.39;64.96
35704;BME280;21820;51.112;13.762;2023-02-23T00:13:43;99113.97;;;18.55;65.15
35704;BME280;21820;51.112;13.762;2023-02-23T00:16:12;99111.19;;;18.47;65.04
35704;BME280;21820;51.112;13.762;2023-02-23T00:18:45;99109.16;;;18.51;65.55
35704;BME280;21820;51.112;13.762;2023-02-23T00:21:41;99113.00;;;18.56;65.48
35704;BME280;21820;51.112;13.762;2023-02-23T00:24:10;99107.38;;;18.51;65.13
35704;BME280;21820;51.112;13.762;2023-02-23T00:26:38;99110.81;;;18.52;65.23
35704;BME280;21820;51.112;13.762;2023-02-23T00:29:11;99103.97;;;18.51;65.39
35704;BME280;21820;51.112;13.762;2023-02-23T00:31:37;99107.19;;;18.43;64.74
35704;BME280;21820;51.112;13.762;2023-02-23T00:34:04;99107.19;;;18.43;65.02
35704;BME280;21820;51.112;13.762;2023-02-23T00:36:32;99108.88;;;18.44;65.25
35704;BME280;21820;51.112;13.762;2023-02-23T00:39:01;99105.56;;;18.42;65.44
35704;BME280;21820;51.112;13.762;2023-02-23T00:41:27;99087.16;;;18.34;65.36
35704;BME280;21820;51.112;13.762;2023-02-23T00:43:57;99102.84;;;18.53;64.69
35704;BME280;21820;51.112;13.762;2023-02-23T00:46:25;99105.88;;;18.49;65.04
35704;BME280;21820;51.112;13.762;2023-02-23T00:48:55;99107.91;;;18.45;64.90
35704;BME280;21820;51.112;13.762;2023-02-23T00:51:21;99112.03;;;18.48;64.77
35704;BME280;21820;51.112;13.762;2023-02-23T00:53:47;99108.88;;;18.44;64.37
35704;BME280;21820;51.112;13.762;2023-02-23T00:56:14;99115.72;;;18.45;64.42
35704;BME280;21820;51.112;13.762;2023-02-23T00:58:40;99113.94;;;18.46;64.97
35704;BME280;21820;51.112;13.762;2023-02-23T01:01:09;99108.16;;;18.42;64.66
35704;BME280;21820;51.112;13.762;2023-02-23T01:03:35;99092.34;;;18.34;65.17
35704;BME280;21820;51.112;13.762;2023-02-23T01:06:03;99114.66;;;18.48;64.88
35704;BME280;21820;51.112;13.762;2023-02-23T01:08:31;99105.03;;;18.48;65.21
35704;BME280;21820;51.112;13.762;2023-02-23T01:10:58;99106.69;;;18.49;64.55
35704;BME280;21820;51.112;13.762;2023-02-23T01:13:24;99103.00;;;18.52;64.61
35704;BME280;21820;51.112;13.762;2023-02-23T01:15:52;99103.13;;;18.50;64.74
35704;BME280;21820;51.112;13.762;2023-02-23T01:18:19;99106.44;;;18.52;64.84
35704;BME280;21820;51.112;13.762;2023-02-23T01:20:45;99100.13;;;18.55;65.08
35704;BME280;21820;51.112;13.762;2023-02-23T01:23:12;99100.38;;;18.52;64.91
35704;BME280;21820;51.112;13.762;2023-02-23T01:25:43;99100.38;;;18.52;64.87
35704;BME280;21820;51.112;13.762;2023-02-23T01:28:09;99081.44;;;18.40;64.99
35704;BME280;21820;51.112;13.762;2023-02-23T01:30:35;99092.03;;;18.48;64.76
35704;BME280;21820;51.112;13.762;2023-02-23T01:33:00;99096.16;;;18.51;64.71
35704;BME280;21820;51.112;13.762;2023-02-23T01:35:27;99096.97;;;18.51;64.68
35704;BME280;21820;51.112;13.762;2023-02-23T01:37:52;99095.31;;;18.50;64.52
35704;BME280;21820;51.112;13.762;2023-02-23T01:40:20;99091.88;;;18.50;64.10
35704;BME280;21820;51.112;13.762;2023-02-23T01:42:55;99083.28;;;18.49;64.26
35704;BME280;21820;51.112;13.762;2023-02-23T01:45:30;99091.75;;;18.51;64.74
35704;BME280;21820;51.112;13.762;2023-02-23T01:48:02;99080.66;;;18.49;64.15
35704;BME280;21820;51.112;13.762;2023-02-23T01:50:35;99083.28;;;18.49;64.76
35704;BME280;21820;51.112;13.762;2023-02-23T01:53:03;99074.63;;;18.49;63.95
35704;BME280;21820;51.112;13.762;2023-02-23T01:55:29;99075.69;;;18.46;64.08
35704;BME280;21820;51.112;13.762;2023-02-23T01:58:00;99076.25;;;18.50;64.53
35704;BME280;21820;51.112;13.762;2023-02-23T02:00:28;99065.06;;;18.49;64.24
35704;BME280;21820;51.112;13.762;2023-02-23T02:02:58;99072.03;;;18.49;63.83
35704;BME280;21820;51.112;13.762;2023-02-23T02:05:24;99064.22;;;18.49;63.94
35704;BME280;21820;51.112;13.762;2023-02-23T02:07:50;99058.19;;;18.48;64.21
35704;BME280;21820;51.112;13.762;2023-02-23T02:10:26;99066.13;;;18.47;64.59
35704;BME280;21820;51.112;13.762;2023-02-23T02:13:06;99066.81;;;18.49;64.09
35704;BME280;21820;51.112;13.762;2023-02-23T02:15:42;99056.41;;;18.49;64.53
35704;BME280;21820;51.112;13.762;2023-02-23T02:21:16;99065.06;;;18.49;64.86
35704;BME280;21820;51.112;13.762;2023-02-23T02:35:29;99031.34;;;18.08;62.60
35704;BME280;21820;51.112;13.762;2023-02-23T02:38:04;99032.00;;;18.10;63.58
35704;BME280;21820;51.112;13.762;2023-02-23T02:40:45;99039.31;;;18.26;62.43
35704;BME280;21820;51.112;13.762;2023-02-23T02:43:23;99046.88;;;18.38;62.10
35704;BME280;21820;51.112;13.762;2023-02-23T02:46:03;99050.50;;;18.47;61.89
35704;BME280;21820;51.112;13.762;2023-02-23T02:53:58;99051.63;;;18.44;61.87
35704;BME280;21820;51.112;13.762;2023-02-23T02:56:33;99035.69;;;18.38;62.24
35704;BME280;21820;51.112;13.762;2023-02-23T02:59:04;99042.91;;;18.34;62.41
35704;BME280;21820;51.112;13.762;2023-02-23T03:01:30;99039.75;;;18.31;62.39
35704;BME280;21820;51.112;13.762;2023-02-23T03:04:24;99041.78;;;18.27;63.00
35704;BME280;21820;51.112;13.762;2023-02-23T03:07:52;99042.19;;;18.23;63.11
35704;BME280;21820;51.112;13.762;2023-02-23T03:16:52;99032.06;;;18.19;64.37
35704;BME280;21820;51.112;13.762;2023-02-23T03:20:09;99025.19;;;18.18;65.20
35704;BME280;21820;51.112;13.762;2023-02-23T03:34:37;99023.16;;;18.22;65.22
35704;BME280;21820;51.112;13.762;2023-02-23T03:37:36;99025.75;;;18.22;66.05
35704;BME280;21820;51.112;13.762;2023-02-23T03:40:26;99035.09;;;18.25;64.15
35704;BME280;21820;51.112;13.762;2023-02-23T03:43:17;99013.41;;;18.14;66.26
35704;BME280;21820;51.112;13.762;2023-02-23T03:46:08;99022.63;;;18.28;64.86
35704;BME280;21820;51.112;13.762;2023-02-23T03:48:56;99021.41;;;18.32;65.15
35704;BME280;21820;51.112;13.762;2023-02-23T03:51:44;99028.25;;;18.33;65.73
35704;BME280;21820;51.112;13.762;2023-02-23T03:54:53;99021.41;;;18.32;66.12
35704;BME280;21820;51.112;13.762;2023-02-23T03:57:40;99020.31;;;18.35;65.74
35704;BME280;21820;51.112;13.762;2023-02-23T04:00:33;99024.72;;;18.34;66.47
35704;BME280;21820;51.112;13.762;2023-02-23T04:03:18;99029.91;;;18.34;64.89
35704;BME280;21820;51.112;13.762;2023-02-23T04:06:07;99031.53;;;18.35;65.46
35704;BME280;21820;51.112;13.762;2023-02-23T04:08:55;99033.31;;;18.35;65.70
35704;BME280;21820;51.112;13.762;2023-02-23T04:11:50;99043.38;;;18.39;65.68
35704;BME280;21820;51.112;13.762;2023-02-23T04:17:07;99043.63;;;18.36;65.68
35704;BME280;21820;51.112;13.762;2023-02-23T04:19:33;99050.50;;;18.47;64.96
35704;BME280;21820;51.112;13.762;2023-02-23T04:21:58;99052.19;;;18.48;64.17
35704;BME280;21820;51.112;13.762;2023-02-23T04:24:24;99052.03;;;18.49;64.82
35704;BME280;21820;51.112;13.762;2023-02-23T04:26:49;99054.09;;;18.46;64.83
35704;BME280;21820;51.112;13.762;2023-02-23T04:29:14;99033.44;;;18.33;64.85
35704;BME280;21820;51.112;13.762;2023-02-23T04:31:40;99058.03;;;18.40;65.36
35704;BME280;21820;51.112;13.762;2023-02-23T04:34:06;99054.59;;;18.40;65.09
35704;BME280;21820;51.112;13.762;2023-02-23T04:36:31;99058.41;;;18.36;64.90
35704;BME280;21820;51.112;13.762;2023-02-23T04:38:57;99052.34;;;18.35;65.23
35704;BME280;21820;51.112;13.762;2023-02-23T04:41:22;99042.66;;;18.37;65.05
35704;BME280;21820;51.112;13.762;2023-02-23T04:43:47;99038.09;;;18.30;65.57
35704;BME280;21820;51.112;13.762;2023-02-23T04:46:13;99051.28;;;18.38;65.42
35704;BME280;21820;51.112;13.762;2023-02-23T04:48:38;99057.28;;;18.38;64.87
35704;BME280;21820;51.112;13.762;2023-02-23T04:51:04;99043.63;;;18.36;65.10
35704;BME280;21820;51.112;13.762;2023-02-23T04:53:29;99049.50;;;18.38;64.96
35704;BME280;21820;51.112;13.762;2023-02-23T04:55:55;99046.09;;;18.38;64.85
35704;BME280;21820;51.112;13.762;2023-02-23T04:58:20;99041.81;;;18.37;64.46
35704;BME280;21820;51.112;13.762;2023-02-23T05:00:46;99040.78;;;18.39;65.65
35704;BME280;21820;51.112;13.762;2023-02-23T05:03:11;99037.91;;;18.42;65.02
35704;BME280;21820;51.112;13.762;2023-02-23T05:05:37;99045.84;;;18.41;65.30
35704;BME280;21820;51.112;13.762;2023-02-23T05:08:03;99038.19;;;18.39;64.97
35704;BME280;21820;51.112;13.762;2023-02-23T05:10:28;99039.81;;;18.40;64.80
35704;BME280;21820;51.112;13.762;2023-02-23T05:12:53;99040.66;;;18.41;64.84
35704;BME280;21820;51.112;13.762;2023-02-23T05:15:19;99035.31;;;18.42;65.40
35704;BME280;21820;51.112;13.762;2023-02-23T05:17:45;99034.34;;;18.43;64.78
35704;BME280;21820;51.112;13.762;2023-02-23T05:20:12;99034.34;;;18.43;65.35
35704;BME280;21820;51.112;13.762;2023-02-23T05:22:37;99017.59;;;18.36;65.16
35704;BME280;21820;51.112;13.762;2023-02-23T05:25:03;99029.00;;;18.45;65.09
35704;BME280;21820;51.112;13.762;2023-02-23T05:27:29;99035.03;;;18.45;65.08
35704;BME280;21820;51.112;13.762;2023-02-23T05:29:54;99039.97;;;18.48;64.58
35704;BME280;21820;51.112;13.762;2023-02-23T05:32:20;99045.03;;;18.50;65.03
35704;BME280;21820;51.112;13.762;2023-02-23T05:34:46;99032.16;;;18.48;65.11
35704;BME280;21820;51.112;13.762;2023-02-23T05:37:11;99037.38;;;18.48;65.06
35704;BME280;21820;51.112;13.762;2023-02-23T05:39:36;99037.38;;;18.48;65.00
35704;BME280;21820;51.112;13.762;2023-02-23T05:42:02;99042.56;;;18.48;64.96
35704;BME280;21820;51.112;13.762;2023-02-23T05:44:27;99046.97;;;18.48;64.87
35704;BME280;21820;51.112;13.762;2023-02-23T05:46:53;99040.09;;;18.47;64.31
35704;BME280;21820;51.112;13.762;2023-02-23T05:49:18;99050.38;;;18.48;64.38
35704;BME280;21820;51.112;13.762;2023-02-23T05:51:43;99046.13;;;18.47;64.30
35704;BME280;21820;51.112;13.762;2023-02-23T05:54:09;99046.97;;;18.48;64.56
35704;BME280;21820;51.112;13.762;2023-02-23T05:56:34;99051.34;;;18.47;64.50
35704;BME280;21820;51.112;13.762;2023-02-23T05:59:00;99052.28;;;18.46;64.08
35704;BME280;21820;51.112;13.762;2023-02-23T06:01:29;99057.47;;;18.46;64.22
35704;BME280;21820;51.112;13.762;2023-02-23T06:03:54;99052.28;;;18.46;64.61
35704;BME280;21820;51.112;13.762;2023-02-23T06:06:20;99055.84;;;18.45;64.09
35704;BME280;21820;51.112;13.762;2023-02-23T06:08:46;99054.09;;;18.46;63.95
35704;BME280;21820;51.112;13.762;2023-02-23T06:11:11;99057.47;;;18.46;64.20
35704;BME280;21820;51.112;13.762;2023-02-23T06:13:37;99065.28;;;18.46;64.10
35704;BME280;21820;51.112;13.762;2023-02-23T06:16:03;99067.09;;;18.46;64.60
35704;BME280;21820;51.112;13.762;2023-02-23T06:18:29;99058.44;;;18.45;64.07
35704;BME280;21820;51.112;13.762;2023-02-23T06:20:57;99063.66;;;18.45;64.48
35704;BME280;21820;51.112;13.762;2023-02-23T06:23:23;99052.91;;;18.39;64.60
35704;BME280;21820;51.112;13.762;2023-02-23T06:25:48;99074.59;;;18.39;63.33
35704;BME280;21820;51.112;13.762;2023-02-23T06:28:14;99070.84;;;18.32;63.91
35704;BME280;21820;51.112;13.762;2023-02-23T06:30:40;99073.16;;;18.26;64.86
35704;BME280;21820;51.112;13.762;2023-02-23T06:33:05;99070.94;;;18.21;63.75
35704;BME280;21820;51.112;13.762;2023-02-23T06:35:32;99072.28;;;18.15;63.86
35704;BME280;21820;51.112;13.762;2023-02-23T06:37:58;99078.31;;;18.16;62.75
35704;BME280;21820;51.112;13.762;2023-02-23T06:40:23;99081.22;;;18.23;62.94
35704;BME280;21820;51.112;13.762;2023-02-23T06:42:49;99075.63;;;18.27;62.27
35704;BME280;21820;51.112;13.762;2023-02-23T06:45:14;99060.00;;;18.27;63.00
35704;BME280;21820;51.112;13.762;2023-02-23T06:47:40;99082.31;;;18.50;61.73
35704;BME280;21820;51.112;13.762;2023-02-23T06:50:07;99078.50;;;18.54;61.61
35704;BME280;21820;51.112;13.762;2023-02-23T06:52:33;99075.88;;;18.54;61.85
35704;BME280;21820;51.112;13.762;2023-02-23T06:54:59;99075.88;;;18.54;61.41
35704;BME280;21820;51.112;13.762;2023-02-23T06:57:24;99073.81;;;18.48;62.08
35704;BME280;21820;51.112;13.762;2023-02-23T06:59:49;99083.09;;;18.41;61.95
35704;BME280;21820;51.112;13.762;2023-02-23T07:02:15;99079.69;;;18.41;62.52
35704;BME280;21820;51.112;13.762;2023-02-23T07:04:41;99076.47;;;18.37;62.25
35704;BME280;21820;51.112;13.762;2023-02-23T07:07:07;99088.22;;;18.32;62.81
35704;BME280;21820;51.112;13.762;2023-02-23T07:09:32;99094.78;;;18.26;62.53
35704;BME280;21820;51.112;13.762;2023-02-23T07:11:58;99084.63;;;18.23;63.02
35704;BME280;21820;51.112;13.762;2023-02-23T07:14:24;99088.19;;;18.22;63.51
35704;BME280;21820;51.112;13.762;2023-02-23T07:16:49;99095.28;;;18.20;63.89
35704;BME280;21820;51.112;13.762;2023-02-23T07:19:14;99090.09;;;18.20;64.05
35704;BME280;21820;51.112;13.762;2023-02-23T07:21:40;99090.09;;;18.20;63.06
35704;BME280;21820;51.112;13.762;2023-02-23T07:24:05;99085.16;;;18.17;63.44
35704;BME280;21820;51.112;13.762;2023-02-23T07:26:31;99081.72;;;18.16;64.31
35704;BME280;21820;51.112;13.762;2023-02-23T07:29:00;99092.00;;;18.18;64.23
35704;BME280;21820;51.112;13.762;2023-02-23T07:31:26;99091.31;;;18.16;64.24
35704;BME280;21820;51.112;13.762;2023-02-23T07:33:52;99088.47;;;18.19;64.38
35704;BME280;21820;51.112;13.762;2023-02-23T07:36:21;99096.97;;;18.21;65.17
35704;BME280;21820;51.112;13.762;2023-02-23T07:38:47;99096.69;;;18.24;64.29
35704;BME280;21820;51.112;13.762;2023-02-23T07:41:12;99083.53;;;18.16;66.33
35704;BME280;21820;51.112;13.762;2023-02-23T07:43:38;99075.00;;;18.14;63.97
35704;BME280;21820;51.112;13.762;2023-02-23T07:46:04;99099.03;;;18.27;65.21
35704;BME280;21820;51.112;13.762;2023-02-23T07:48:29;99093.00;;;18.27;65.81
35704;BME280;21820;51.112;13.762;2023-02-23T07:50:55;99095.59;;;18.27;65.85
35704;BME280;21820;51.112;13.762;2023-02-23T07:53:20;99096.44;;;18.27;65.24
35704;BME280;21820;51.112;13.762;2023-02-23T07:55:54;99101.38;;;18.30;66.02
35704;BME280;21820;51.112;13.762;2023-02-23T07:58:19;99097.84;;;18.31;64.87
35704;BME280;21820;51.112;13.762;2023-02-23T08:00:45;99094.53;;;18.29;66.05
35704;BME280;21820;51.112;13.762;2023-02-23T08:03:10;99100.31;;;18.33;65.79
35704;BME280;21820;51.112;13.762;2023-02-23T08:05:35;99106.31;;;18.33;65.76
35704;BME280;21820;51.112;13.762;2023-02-23T08:08:05;99107.13;;;18.34;66.00
35704;BME280;21820;51.112;13.762;2023-02-23T08:10:30;99107.84;;;18.36;65.46
35704;BME280;21820;51.112;13.762;2023-02-23T08:12:56;99116.34;;;18.38;65.29
35704;BME280;21820;51.112;13.762;2023-02-23T08:15:22;99114.53;;;18.38;65.39
35704;BME280;21820;51.112;13.762;2023-02-23T08:17:47;99112.69;;;18.40;64.99
35704;BME280;21820;51.112;13.762;2023-02-23T08:20:12;99114.53;;;18.38;65.11
35704;BME280;21820;51.112;13.762;2023-02-23T08:22:38;99104.88;;;18.40;65.55
35704;BME280;21820;51.112;13.762;2023-02-23T08:25:03;99105.16;;;18.47;65.56
35704;BME280;21820;51.112;13.762;2023-02-23T08:27:33;99105.56;;;18.42;65.24
35704;BME280;21820;51.112;13.762;2023-02-23T08:29:58;99101.06;;;18.44;65.25
35704;BME280;21820;51.112;13.762;2023-02-23T08:32:25;99110.25;;;18.48;64.92
35704;BME280;21820;51.112;13.762;2023-02-23T08:34:50;99103.66;;;18.44;65.54
35704;BME280;21820;51.112;13.762;2023-02-23T08:37:15;99104.72;;;18.42;65.67
35704;BME280;21820;51.112;13.762;2023-02-23T08:39:41;99106.63;;;18.40;65.45
35704;BME280;21820;51.112;13.762;2023-02-23T08:42:06;99108.44;;;18.39;65.42
35704;BME280;21820;51.112;13.762;2023-02-23T08:44:31;99112.06;;;18.37;65.31
35704;BME280;21820;51.112;13.762;2023-02-23T08:46:57;99117.28;;;18.37;65.26
35704;BME280;21820;51.112;13.762;2023-02-23T08:49:24;99107.13;;;18.34;65.75
35704;BME280;21820;51.112;13.762;2023-02-23T08:51:50;99111.50;;;18.33;65.44
35704;BME280;21820;51.112;13.762;2023-02-23T08:54:15;99116.97;;;18.30;64.92
35704;BME280;21820;51.112;13.762;2023-02-23T08:56:43;99120.28;;;18.32;65.88
35704;BME280;21820;51.112;13.762;2023-02-23T08:59:08;99111.03;;;18.39;66.00
35704;BME280;21820;51.112;13.762;2023-02-23T09:01:34;99111.28;;;18.36;65.37
35704;BME280;21820;51.112;13.762;2023-02-23T09:04:01;99113.75;;;18.38;65.25
35704;BME280;21820;51.112;13.762;2023-02-23T09:06:27;99118.13;;;18.37;65.62
35704;BME280;21820;51.112;13.762;2023-02-23T09:08:53;99111.28;;;18.36;64.69
35704;BME280;21820;51.112;13.762;2023-02-23T09:11:19;99114.53;;;18.38;65.69
35704;BME280;21820;51.112;13.762;2023-02-23T09:13:44;99116.47;;;18.36;65.13
35704;BME280;21820;51.112;13.762;2023-02-23T09:16:10;99114.53;;;18.38;65.32
35704;BME280;21820;51.112;13.762;2023-02-23T09:18:35;99097.41;;;18.26;65.01
35704;BME280;21820;51.112;13.762;2023-02-23T09:21:03;99109.34;;;18.38;65.05
35704;BME280;21820;51.112;13.762;2023-02-23T09:23:30;99116.47;;;18.36;64.64
35704;BME280;21820;51.112;13.762;2023-02-23T09:25:55;99112.06;;;18.37;65.11
35704;BME280;21820;51.112;13.762;2023-02-23T09:28:21;99119.75;;;18.38;65.45
35704;BME280;21820;51.112;13.762;2023-02-23T09:30:46;99117.28;;;18.37;65.56
35704;BME280;21820;51.112;13.762;2023-02-23T09:33:12;99114.31;;;18.41;65.49
35704;BME280;21820;51.112;13.762;2023-02-23T09:35:38;99108.44;;;18.39;64.80
35704;BME280;21820;51.112;13.762;2023-02-23T09:38:05;99111.72;;;18.41;64.98
35704;BME280;21820;51.112;13.762;2023-02-23T09:40:43;99125.56;;;18.42;65.18
35704;BME280;21820;51.112;13.762;2023-02-23T09:48:33;99120.09;;;18.45;64.85
35704;BME280;21820;51.112;13.762;2023-02-23T09:51:00;99121.06;;;18.44;65.14
35704;BME280;21820;51.112;13.762;2023-02-23T09:53:42;99120.22;;;18.43;64.92
35704;BME280;21820;51.112;13.762;2023-02-23T09:56:15;99115.00;;;18.43;64.80
35704;BME280;21820;51.112;13.762;2023-02-23T09:58:42;99112.53;;;18.42;65.20
35704;BME280;21820;51.112;13.762;2023-02-23T10:01:25;99122.81;;;18.43;65.10
35704;BME280;21820;51.112;13.762;2023-02-23T10:04:02;99112.69;;;18.40;65.01
35704;BME280;21820;51.112;13.762;2023-02-23T10:06:31;99125.56;;;18.42;64.89
35704;BME280;21820;51.112;13.762;2023-02-23T10:11:44;99115.97;;;18.42;64.67
35704;BME280;21820;51.112;13.762;2023-02-23T10:14:19;99118.72;;;18.41;64.78
35704;BME280;21820;51.112;13.762;2023-02-23T10:17:00;99119.50;;;18.41;65.00
35704;BME280;21820;51.112;13.762;2023-02-23T10:19:43;99114.31;;;18.41;65.17
35704;BME280;21820;51.112;13.762;2023-02-23T10:22:13;99113.66;;;18.39;64.79
35704;BME280;21820;51.112;13.762;2023-02-23T10:24:43;99108.31;;;18.41;64.85
35704;BME280;21820;51.112;13.762;2023-02-23T10:27:16;99109.09;;;18.41;64.68
35704;BME280;21820;51.112;13.762;2023-02-23T10:29:46;99108.31;;;18.41;65.08
35704;BME280;21820;51.112;13.762;2023-02-23T10:32:31;99088.22;;;18.32;64.68
35704;BME280;21820;51.112;13.762;2023-02-23T10:35:10;99109.09;;;18.41;64.54
35704;BME280;21820;51.112;13.762;2023-02-23T10:37:37;99109.09;;;18.41;64.41
35704;BME280;21820;51.112;13.762;2023-02-23T10:40:03;99108.44;;;18.39;64.68
35704;BME280;21820;51.112;13.762;2023-02-23T10:42:31;99105.84;;;18.39;64.30
35704;BME280;21820;51.112;13.762;2023-02-23T10:44:58;99108.44;;;18.39;64.94
35704;BME280;21820;51.112;13.762;2023-02-23T10:47:26;99111.03;;;18.39;64.42
35704;BME280;21820;51.112;13.762;2023-02-23T10:49:55;99100.63;;;18.39;64.89
35704;BME280;21820;51.112;13.762;2023-02-23T10:52:22;99098.19;;;18.47;64.40
35704;BME280;21820;51.112;13.762;2023-02-23T10:54:51;99099.66;;;18.40;64.31
35704;BME280;21820;51.112;13.762;2023-02-23T10:57:26;99088.09;;;18.33;64.67
35704;BME280;21820;51.112;13.762;2023-02-23T11:02:31;99098.03;;;18.39;64.73
35704;BME280;21820;51.112;13.762;2023-02-23T11:04:59;99091.13;;;18.38;64.46
35704;BME280;21820;51.112;13.762;2023-02-23T11:07:27;99088.53;;;18.38;64.79
35704;BME280;21820;51.112;13.762;2023-02-23T11:09:54;99086.06;;;18.37;64.27
35704;BME280;21820;51.112;13.762;2023-02-23T11:12:39;99084.16;;;18.39;64.90
35704;BME280;21820;51.112;13.762;2023-02-23T11:17:57;99079.81;;;18.39;64.38
35704;BME280;21820;51.112;13.762;2023-02-23T11:20:30;99078.25;;;18.37;64.36
35704;BME280;21820;51.112;13.762;2023-02-23T11:23:00;99076.47;;;18.37;64.49
35704;BME280;21820;51.112;13.762;2023-02-23T11:25:30;99066.06;;;18.37;65.05
35704;BME280;21820;51.112;13.762;2023-02-23T11:27:57;99060.88;;;18.37;64.24
35704;BME280;21820;51.112;13.762;2023-02-23T11:30:28;99059.09;;;18.38;65.07
35704;BME280;21820;51.112;13.762;2023-02-23T11:32:57;99048.63;;;18.28;64.74
35704;BME280;21820;51.112;13.762;2023-02-23T11:35:24;99064.44;;;18.36;64.76
35704;BME280;21820;51.112;13.762;2023-02-23T11:37:54;99055.66;;;18.37;64.72
35704;BME280;21820;51.112;13.762;2023-02-23T11:40:27;99055.66;;;18.37;64.36
35704;BME280;21820;51.112;13.762;2023-02-23T11:43:08;99052.09;;;18.38;64.69
35704;BME280;21820;51.112;13.762;2023-02-23T11:45:46;99053.06;;;18.37;64.66
35704;BME280;21820;51.112;13.762;2023-02-23T11:48:32;99048.00;;;18.36;64.81
35704;BME280;21820;51.112;13.762;2023-02-23T11:50:59;99044.41;;;18.37;64.51
35704;BME280;21820;51.112;13.762;2023-02-23T11:53:29;99043.63;;;18.36;64.70
35704;BME280;21820;51.112;13.762;2023-02-23T11:55:58;99038.41;;;18.36;64.87
35704;BME280;21820;51.112;13.762;2023-02-23T11:58:45;99046.88;;;18.38;64.41
35704;BME280;21820;51.112;13.762;2023-02-23T12:01:14;99026.31;;;18.26;64.54
35704;BME280;21820;51.112;13.762;2023-02-23T12:03:47;99031.81;;;18.32;64.97
35704;BME280;21820;51.112;13.762;2023-02-23T12:06:25;99034.00;;;18.37;64.37
35704;BME280;21820;51.112;13.762;2023-02-23T12:08:57;99039.22;;;18.37;64.38
35704;BME280;21820;51.112;13.762;2023-02-23T12:11:30;99034.16;;;18.35;64.28
35704;BME280;21820;51.112;13.762;2023-02-23T12:14:25;99037.44;;;18.37;64.71
35704;BME280;21820;51.112;13.762;2023-02-23T12:16:57;99036.06;;;18.33;64.35
35704;BME280;21820;51.112;13.762;2023-02-23T12:19:30;99029.91;;;18.34;64.83
35704;BME280;21820;51.112;13.762;2023-02-23T12:27:21;99025.41;;;18.36;64.84
35704;BME280;21820;51.112;13.762;2023-02-23T12:35:15;99018.66;;;18.34;64.45
35704;BME280;21820;51.112;13.762;2023-02-23T12:37:47;99017.16;;;18.31;65.01
35704;BME280;21820;51.112;13.762;2023-02-23T12:40:17;99021.41;;;18.32;64.74
35704;BME280;21820;51.112;13.762;2023-02-23T12:42:50;99012.63;;;18.33;64.49
35704;BME280;21820;51.112;13.762;2023-02-23T12:45:22;99012.63;;;18.33;64.26
35704;BME280;21820;51.112;13.762;2023-02-23T12:48:01;98996.88;;;18.25;64.91
35704;BME280;21820;51.112;13.762;2023-02-23T12:50:33;99009.22;;;18.33;64.86
35704;BME280;21820;51.112;13.762;2023-02-23T12:53:10;99002.22;;;18.33;64.75
35704;BME280;21820;51.112;13.762;2023-02-23T12:58:25;99003.88;;;18.34;64.67
35704;BME280;21820;51.112;13.762;2023-02-23T13:00:58;99012.63;;;18.33;64.46
35704;BME280;21820;51.112;13.762;2023-02-23T13:08:57;98993.47;;;18.34;64.23
35704;BME280;21820;51.112;13.762;2023-02-23T13:11:27;99002.66;;;18.38;64.62
35704;BME280;21820;51.112;13.762;2023-02-23T13:14:11;98992.78;;;18.32;64.14
35704;BME280;21820;51.112;13.762;2023-02-23T13:16:47;98990.19;;;18.32;64.66
35704;BME280;21820;51.112;13.762;2023-02-23T13:22:00;98974.00;;;18.19;64.37
35704;BME280;21820;51.112;13.762;2023-02-23T13:24:38;98993.75;;;18.31;64.17
35704;BME280;21820;51.112;13.762;2023-02-23T13:29:42;98992.09;;;18.30;64.58
35704;BME280;21820;51.112;13.762;2023-02-23T13:32:29;98993.06;;;18.29;64.67
35704;BME280;21820;51.112;13.762;2023-02-23T13:34:58;98995.66;;;18.29;64.31
35704;BME280;21820;51.112;13.762;2023-02-23T13:37:31;98994.69;;;18.30;64.79
35704;BME280;21820;51.112;13.762;2023-02-23T13:40:35;98995.38;;;18.32;64.33
35704;BME280;21820;51.112;13.762;2023-02-23T13:43:21;98995.38;;;18.32;65.02
35704;BME280;21820;51.112;13.762;2023-02-23T13:48:29;98985.94;;;18.31;64.86
35704;BME280;21820;51.112;13.762;2023-02-23T13:51:07;98983.34;;;18.31;64.65
35704;BME280;21820;51.112;13.762;2023-02-23T13:53:43;98984.28;;;18.30;64.16
35704;BME280;21820;51.112;13.762;2023-02-23T13:56:16;98981.69;;;18.30;64.84
35704;BME280;21820;51.112;13.762;2023-02-23T13:59:06;98985.94;;;18.31;64.28
35704;BME280;21820;51.112;13.762;2023-02-23T14:01:39;98986.06;;;18.30;64.94
35704;BME280;21820;51.112;13.762;2023-02-23T14:04:20;98987.72;;;18.31;64.71
35704;BME280;21820;51.112;13.762;2023-02-23T14:07:02;98964.53;;;18.18;64.35
35704;BME280;21820;51.112;13.762;2023-02-23T14:09:31;98981.94;;;18.27;64.54
35704;BME280;21820;51.112;13.762;2023-02-23T14:19:41;98974.00;;;18.29;64.09
35704;BME280;21820;51.112;13.762;2023-02-23T14:22:14;98969.63;;;18.29;64.83
35704;BME280;21820;51.112;13.762;2023-02-23T14:24:42;98977.44;;;18.29;64.77
35704;BME280;21820;51.112;13.762;2023-02-23T14:27:36;98970.56;;;18.28;64.70
35704;BME280;21820;51.112;13.762;2023-02-23T14:32:45;98984.28;;;18.30;64.76
35704;BME280;21820;51.112;13.762;2023-02-23T14:38:00;98984.41;;;18.29;64.29
35704;BME280;21820;51.112;13.762;2023-02-23T14:40:32;98978.38;;;18.28;64.53
35704;BME280;21820;51.112;13.762;2023-02-23T14:43:01;98978.38;;;18.28;64.40